Terminal Aerodrome Forecast
Issued by NWS Shreveport, LA

Home | Current Version | Previous Version | Text Only | Print | Product List | Glossary On
Versions: 1 2 3 4 5 6 7 8 9 10 11 12 13 14
284
FTUS44 KSHV 262148 AAA
TAFGGG
TAF AMD
KGGG 262148Z 2622/2718 16012KT P6SM VCSH BKN040
     FM270000 15007KT P6SM VCTS SCT020 BKN040CB
     FM270300 15006KT 3SM TSRA BR OVC030CB
     FM271600 17009KT 5SM -RA BR VCTS BKN025CB=

USA.gov is the U.S. government's official web portal to all federal, state and local government web resources and services.